Time;durP1;ratioP1;P1;durP2;ratioP2;P2;SDS_P1;SDS_P2;PMS_P1;PMS_P2;Temp;Humidity;BMP_temperature;BMP_pressure;BME280_temperature;BME280_humidity;BME280_pressure;Samples;Min_cycle;Max_cycle;Signal;HPM_P1;HPM_P2
2023/07/22 00:00:38;;;;;;;0.20;0.20;;;;;;;14.64;68.94;99050.09;4985294;28;20156;-71
2023/07/22 00:03:04;;;;;;;0.20;0.20;;;;;;;14.57;69.00;99053.31;4985962;28;20046;-70
2023/07/22 00:05:34;;;;;;;0.20;0.20;;;;;;;14.56;69.46;99057.22;4985477;28;20104;-71
2023/07/22 00:08:03;;;;;;;0.20;0.20;;;;;;;14.56;69.20;99049.78;4986827;28;20058;-71
2023/07/22 00:10:29;;;;;;;0.15;0.15;;;;;;;14.54;68.87;99049.28;4985578;28;20500;-71
2023/07/22 00:12:56;;;;;;;0.13;0.13;;;;;;;14.52;68.52;99054.31;5002304;28;20466;-71
2023/07/22 00:15:23;;;;;;;0.10;0.10;;;;;;;14.50;68.46;99053.00;4983647;28;20052;-70
2023/07/22 00:17:50;;;;;;;0.10;0.10;;;;;;;14.47;68.60;99048.94;4999644;28;20042;-71
2023/07/22 00:20:18;;;;;;;0.10;0.10;;;;;;;14.43;69.09;99054.25;4948905;28;20046;-70
2023/07/22 00:22:44;;;;;;;0.10;0.10;;;;;;;14.43;69.33;99045.22;4965079;28;20050;-70
2023/07/22 00:25:12;;;;;;;0.10;0.10;;;;;;;14.42;68.98;99043.59;4968614;28;20042;-70
2023/07/22 00:27:40;;;;;;;0.10;0.10;;;;;;;14.45;68.66;99042.94;4984025;28;20151;-70
2023/07/22 00:30:08;;;;;;;0.10;0.10;;;;;;;14.41;68.70;99041.97;4984397;28;20169;-69
2023/07/22 00:32:36;;;;;;;0.10;0.10;;;;;;;14.45;68.70;99053.94;4985661;28;20086;-70
2023/07/22 00:35:03;;;;;;;0.10;0.10;;;;;;;14.43;68.99;99050.72;4951259;28;20525;-70
2023/07/22 00:37:30;;;;;;;0.13;0.13;;;;;;;14.39;69.49;99050.53;4952550;28;20051;-70
2023/07/22 00:39:56;;;;;;;0.10;0.10;;;;;;;14.36;69.46;99055.84;4982644;28;20065;-70
2023/07/22 00:42:25;;;;;;;0.20;0.20;;;;;;;14.37;69.29;99049.25;4982333;28;20054;-70
2023/07/22 00:44:51;;;;;;;0.10;0.10;;;;;;;14.39;69.22;99060.75;4983897;28;20051;-71
2023/07/22 00:47:19;;;;;;;0.10;0.10;;;;;;;14.37;69.56;99061.03;4983112;28;20069;-71
2023/07/22 00:49:49;;;;;;;0.10;0.10;;;;;;;14.30;69.56;99047.75;4970152;28;20137;-70
2023/07/22 00:52:16;;;;;;;0.10;0.10;;;;;;;14.29;70.66;99054.38;4999098;28;21121;-71
2023/07/22 00:54:43;;;;;;;0.10;0.10;;;;;;;14.26;70.13;99055.03;4965737;28;20479;-70
2023/07/22 00:57:10;;;;;;;0.10;0.10;;;;;;;14.31;70.27;99065.06;4984059;28;20042;-70
2023/07/22 00:59:38;;;;;;;0.10;0.10;;;;;;;14.31;69.86;99071.38;4981840;28;20406;-70
2023/07/22 01:02:04;;;;;;;0.10;0.10;;;;;;;14.29;70.46;99059.88;4984752;28;20514;-70
2023/07/22 01:04:34;;;;;;;0.20;0.20;;;;;;;14.28;70.68;99068.44;4982041;28;20564;-69
2023/07/22 01:07:08;;;;;;;0.10;0.10;;;;;;;14.28;70.33;99063.75;4985930;28;20054;-69
2023/07/22 01:09:35;;;;;;;0.10;0.10;;;;;;;14.31;70.00;99065.06;4952983;28;20053;-69
2023/07/22 01:12:02;;;;;;;0.10;0.10;;;;;;;14.31;70.35;99057.63;4984808;28;20046;-70
2023/07/22 01:14:28;;;;;;;0.20;0.20;;;;;;;14.33;70.66;99076.56;4968978;28;20124;-69
2023/07/22 01:16:56;;;;;;;0.10;0.10;;;;;;;14.32;70.56;99074.94;4983207;28;20074;-70
2023/07/22 01:19:23;;;;;;;0.10;0.10;;;;;;;14.30;70.67;99069.75;4983254;28;20058;-70
2023/07/22 01:21:51;;;;;;;0.10;0.10;;;;;;;14.30;70.86;99069.75;4966873;28;20581;-70
2023/07/22 01:24:19;;;;;;;0.10;0.10;;;;;;;14.31;70.81;99068.63;4984300;28;20510;-70
2023/07/22 01:26:45;;;;;;;0.20;0.20;;;;;;;14.29;70.99;99072.84;4998730;28;20066;-70
2023/07/22 01:29:11;;;;;;;0.10;0.10;;;;;;;14.30;70.93;99074.47;4983087;28;20581;-70
2023/07/22 01:31:38;;;;;;;0.10;0.10;;;;;;;14.29;71.12;99083.84;4950700;28;20056;-71
2023/07/22 01:34:04;;;;;;;0.20;0.20;;;;;;;14.29;71.54;99086.59;4998852;28;20119;-70
2023/07/22 01:36:31;;;;;;;0.10;0.10;;;;;;;14.25;71.88;99086.41;4967602;28;20102;-70
2023/07/22 01:38:57;;;;;;;0.10;0.10;;;;;;;14.26;72.05;99087.19;4983636;28;20465;-70
2023/07/22 01:41:25;;;;;;;0.15;0.15;;;;;;;14.24;72.08;99089.44;4998175;28;20050;-70
2023/07/22 01:43:51;;;;;;;0.10;0.10;;;;;;;14.27;72.13;99089.63;4985375;28;20042;-70
2023/07/22 01:46:17;;;;;;;0.10;0.10;;;;;;;14.31;71.50;99096.13;4967162;28;20137;-70
2023/07/22 01:48:43;;;;;;;0.10;0.10;;;;;;;14.29;71.67;99097.59;4981415;28;20149;-70
2023/07/22 01:51:09;;;;;;;0.10;0.10;;;;;;;14.32;71.49;99094.19;4983603;28;20051;-70
2023/07/22 01:53:36;;;;;;;0.20;0.20;;;;;;;14.29;71.53;99092.09;4985926;28;20102;-70
2023/07/22 01:56:02;;;;;;;0.10;0.10;;;;;;;14.30;71.43;99093.69;4983352;28;20097;-70
2023/07/22 01:58:30;;;;;;;0.10;0.10;;;;;;;14.32;71.40;99094.19;4984302;28;20046;-70
2023/07/22 02:00:56;;;;;;;0.17;0.17;;;;;;;14.33;71.29;99098.56;5000754;28;20050;-70
2023/07/22 02:03:22;;;;;;;0.20;0.20;;;;;;;14.35;71.12;99101.81;4981307;28;20069;-71
2023/07/22 02:05:49;;;;;;;0.10;0.10;;;;;;;14.35;71.74;99106.47;4982953;28;20186;-70
2023/07/22 02:08:15;;;;;;;0.10;0.10;;;;;;;14.36;71.40;99111.66;4968693;28;20133;-68
2023/07/22 02:10:41;;;;;;;0.17;0.17;;;;;;;14.36;71.78;99113.59;4983576;28;20046;-69
2023/07/22 02:13:08;;;;;;;0.10;0.10;;;;;;;14.39;71.50;99104.72;4984932;28;20484;-70
2023/07/22 02:15:36;;;;;;;0.20;0.20;;;;;;;14.39;71.71;99102.78;4965274;28;20082;-70
2023/07/22 02:18:03;;;;;;;0.20;0.20;;;;;;;14.41;71.41;99107.97;4983583;28;20054;-70
2023/07/22 02:20:30;;;;;;;0.15;0.15;;;;;;;14.42;71.32;99110.38;4999905;28;20105;-70
2023/07/22 02:22:57;;;;;;;0.13;0.13;;;;;;;14.45;71.04;99103.44;4985695;28;20141;-70
2023/07/22 02:25:23;;;;;;;0.13;0.13;;;;;;;14.44;70.65;99112.84;4988747;28;20054;-69
2023/07/22 02:27:50;;;;;;;0.20;0.20;;;;;;;14.42;71.01;99115.88;4989334;28;20042;-71
2023/07/22 02:30:17;;;;;;;0.20;0.20;;;;;;;14.43;71.07;99114.75;4986595;28;20104;-70
2023/07/22 02:32:45;;;;;;;0.20;0.20;;;;;;;14.46;70.47;99110.56;5002628;28;20042;-70
2023/07/22 02:35:12;;;;;;;0.20;0.20;;;;;;;14.46;70.63;99105.91;4987417;28;20057;-70
2023/07/22 02:37:39;;;;;;;0.17;0.17;;;;;;;14.49;70.64;99111.88;4985468;28;20169;-70
2023/07/22 02:40:12;;;;;;;0.20;0.20;;;;;;;14.50;70.46;99117.06;4969843;28;20046;-70
2023/07/22 02:42:39;;;;;;;0.20;0.20;;;;;;;14.51;70.61;99120.63;4982575;28;20104;-70
2023/07/22 02:45:07;;;;;;;0.20;0.20;;;;;;;14.51;70.65;99124.16;4985787;28;20231;-70
2023/07/22 02:47:37;;;;;;;0.20;0.20;;;;;;;14.54;70.82;99118.06;4985357;28;20085;-70
2023/07/22 02:50:06;;;;;;;0.20;0.20;;;;;;;14.56;70.76;99118.56;4986245;28;20053;-70
2023/07/22 02:52:33;;;;;;;0.20;0.20;;;;;;;14.61;70.48;99121.16;4987286;28;20062;-70
2023/07/22 02:55:10;;;;;;;0.10;0.10;;;;;;;14.65;70.80;99126.84;4988663;28;20054;-70
2023/07/22 02:57:37;;;;;;;0.20;0.20;;;;;;;14.69;70.73;99116.81;4987751;28;20136;-71
2023/07/22 03:00:07;;;;;;;0.20;0.20;;;;;;;14.73;70.45;99112.31;4987490;28;20042;-70
2023/07/22 03:02:34;;;;;;;0.20;0.20;;;;;;;14.78;70.59;99122.34;5002506;28;20081;-69
2023/07/22 03:05:00;;;;;;;0.35;0.20;;;;;;;14.80;70.22;99117.34;4988414;28;20042;-70
2023/07/22 03:07:28;;;;;;;0.10;0.10;;;;;;;14.80;70.29;99127.56;4985710;28;20050;-70
2023/07/22 03:09:54;;;;;;;0.17;0.17;;;;;;;14.85;69.46;99119.97;4966126;28;20096;-70
2023/07/22 03:12:20;;;;;;;0.20;0.20;;;;;;;14.91;70.08;99119.81;4984664;28;20101;-70
2023/07/22 03:14:48;;;;;;;0.20;0.20;;;;;;;14.95;69.85;99123.53;4953459;28;20043;-70
2023/07/22 03:17:16;;;;;;;0.20;0.20;;;;;;;15.00;69.42;99126.16;4985906;28;20038;-70
2023/07/22 03:19:43;;;;;;;0.20;0.20;;;;;;;15.03;69.10;99125.50;4984999;28;20050;-70
2023/07/22 03:22:09;;;;;;;0.20;0.20;;;;;;;15.10;69.08;99130.53;4985896;28;20046;-71
2023/07/22 03:24:37;;;;;;;0.20;0.20;;;;;;;15.14;68.98;99132.31;4971704;28;20391;-71
2023/07/22 03:27:04;;;;;;;0.17;0.17;;;;;;;15.17;68.61;99130.84;4987007;28;20113;-70
2023/07/22 03:29:30;;;;;;;0.20;0.20;;;;;;;15.18;68.44;99121.47;4969472;28;20053;-69
2023/07/22 03:31:57;;;;;;;0.20;0.20;;;;;;;15.23;68.70;99131.50;5001583;28;20054;-70
2023/07/22 03:34:23;;;;;;;0.20;0.20;;;;;;;15.25;68.34;99135.56;4983595;28;20077;-71
2023/07/22 03:36:50;;;;;;;0.20;0.20;;;;;;;15.30;68.35;99140.13;4967234;28;20046;-70
2023/07/22 03:39:16;;;;;;;0.20;0.20;;;;;;;15.37;68.09;99137.69;4970978;28;20051;-70
2023/07/22 03:41:44;;;;;;;0.20;0.20;;;;;;;15.42;68.01;99137.50;4986739;28;20136;-69
2023/07/22 03:44:09;;;;;;;;;;;;;;;15.49;67.75;99139.78;4982991;28;20515;-69
2023/07/22 03:46:36;;;;;;;0.20;0.20;;;;;;;15.49;66.70;99141.75;4979963;28;20007;-69
2023/07/22 03:49:02;;;;;;;0.20;0.20;;;;;;;15.50;67.01;99135.91;4950021;28;20360;-70
2023/07/22 03:51:28;;;;;;;0.20;0.20;;;;;;;15.55;66.84;99148.69;4965068;28;20054;-70
2023/07/22 03:53:55;;;;;;;0.28;0.28;;;;;;;15.63;66.63;99139.63;4967678;28;20371;-70
2023/07/22 03:56:23;;;;;;;0.20;0.20;;;;;;;15.70;66.47;99162.00;4982425;28;20054;-70
2023/07/22 03:58:52;;;;;;;0.20;0.20;;;;;;;15.73;67.04;99150.31;4981163;28;20073;-70
2023/07/22 04:01:18;;;;;;;0.25;0.25;;;;;;;15.80;67.29;99152.56;4987271;28;20046;-70
2023/07/22 04:03:45;;;;;;;0.30;0.30;;;;;;;15.82;66.39;99150.31;4983979;28;20058;-70
2023/07/22 04:06:11;;;;;;;0.20;0.20;;;;;;;15.82;66.02;99144.78;4985299;28;20092;-70
2023/07/22 04:08:38;;;;;;;0.20;0.20;;;;;;;15.71;65.91;99147.06;4985388;28;20845;-70
2023/07/22 04:11:04;;;;;;;0.20;0.20;;;;;;;15.71;66.50;99149.03;4966688;28;20050;-70
2023/07/22 04:13:30;;;;;;;0.30;0.30;;;;;;;15.84;66.45;99150.00;4951615;28;20042;-70
2023/07/22 04:15:58;;;;;;;0.20;0.20;;;;;;;15.94;66.38;99141.41;4983225;28;20065;-70
2023/07/22 04:18:25;;;;;;;0.20;0.20;;;;;;;16.02;65.54;99142.53;4999799;28;20164;-71
2023/07/22 04:20:55;;;;;;;0.30;0.30;;;;;;;16.12;64.91;99149.66;4966860;28;20054;-70
2023/07/22 04:23:22;;;;;;;0.30;0.30;;;;;;;16.18;65.17;99155.81;4985485;28;20552;-69
2023/07/22 04:25:48;;;;;;;0.20;0.20;;;;;;;16.25;63.73;99156.09;4970246;28;20058;-70
2023/07/22 04:28:15;;;;;;;0.20;0.20;;;;;;;16.19;63.17;99149.94;4969637;28;20053;-70
2023/07/22 04:30:41;;;;;;;0.25;0.25;;;;;;;16.24;63.24;99155.31;4951882;28;20153;-70
2023/07/22 04:33:12;;;;;;;0.20;0.20;;;;;;;16.35;63.80;99160.44;5001779;28;20046;-70
2023/07/22 04:35:40;;;;;;;0.20;0.20;;;;;;;16.38;62.54;99154.25;4984849;28;20045;-70
2023/07/22 04:38:07;;;;;;;0.30;0.30;;;;;;;16.40;62.08;99163.03;4983295;28;20100;-70
2023/07/22 04:40:33;;;;;;;0.20;0.20;;;;;;;16.41;62.84;99167.44;4950695;28;20506;-70
2023/07/22 04:42:59;;;;;;;0.20;0.20;;;;;;;16.46;62.74;99164.47;4984359;28;20042;-70
2023/07/22 04:45:26;;;;;;;0.30;0.30;;;;;;;16.53;62.33;99169.47;4980257;28;20497;-70
2023/07/22 04:47:52;;;;;;;0.20;0.20;;;;;;;16.55;62.06;99162.50;4984276;28;20050;-71
2023/07/22 04:50:20;;;;;;;0.28;0.28;;;;;;;16.59;61.89;99170.91;4983254;28;20100;-71
2023/07/22 04:52:47;;;;;;;0.20;0.20;;;;;;;16.63;61.53;99169.13;5001556;28;20706;-70
2023/07/22 04:55:13;;;;;;;;;;;;;;;16.67;61.99;99170.09;5003048;28;20109;-70
2023/07/22 04:57:42;;;;;;;0.20;0.20;;;;;;;16.77;61.08;99179.13;4966881;28;19932;-70
2023/07/22 05:00:14;;;;;;;0.20;0.20;;;;;;;16.82;60.54;99173.44;4968747;28;20573;-70
2023/07/22 05:02:41;;;;;;;0.20;0.20;;;;;;;16.83;60.22;99169.53;4983216;28;20425;-70
2023/07/22 05:05:08;;;;;;;0.20;0.20;;;;;;;16.85;59.83;99170.78;4984597;28;20057;-70
2023/07/22 05:07:37;;;;;;;0.20;0.20;;;;;;;16.90;59.36;99172.56;4965675;28;20058;-70
2023/07/22 05:10:03;;;;;;;0.20;0.20;;;;;;;16.95;59.52;99177.09;4981452;28;20042;-70
2023/07/22 05:12:30;;;;;;;0.30;0.30;;;;;;;17.01;59.70;99175.78;4998864;28;20152;-70
2023/07/22 05:14:56;;;;;;;0.30;0.30;;;;;;;17.09;59.77;99163.88;4983367;28;20050;-69
2023/07/22 05:17:23;;;;;;;0.28;0.28;;;;;;;17.14;59.43;99163.69;4984095;28;20754;-70
2023/07/22 05:19:49;;;;;;;0.20;0.20;;;;;;;17.22;59.06;99169.50;4998235;28;20149;-70
2023/07/22 05:22:15;;;;;;;0.30;0.30;;;;;;;17.25;57.85;99160.53;4983489;28;20124;-70
2023/07/22 05:24:43;;;;;;;0.20;0.20;;;;;;;17.32;58.42;99169.09;4982966;28;20050;-71
2023/07/22 05:27:10;;;;;;;0.20;0.20;;;;;;;17.34;58.11;99152.19;4967221;28;20096;-70
2023/07/22 05:29:36;;;;;;;0.20;0.20;;;;;;;17.46;57.00;99166.06;4984288;28;20061;-70
2023/07/22 05:32:06;;;;;;;0.20;0.20;;;;;;;17.49;57.46;99162.63;4983889;28;20237;-70
2023/07/22 05:34:32;;;;;;;0.20;0.20;;;;;;;17.61;57.06;99163.84;4999679;28;20077;-69
2023/07/22 05:36:58;;;;;;;0.30;0.30;;;;;;;17.61;55.88;99158.31;4999065;28;20079;-71
2023/07/22 05:39:26;;;;;;;0.30;0.30;;;;;;;17.66;55.31;99167.22;4998999;28;20054;-70
2023/07/22 05:41:53;;;;;;;0.20;0.20;;;;;;;17.72;55.57;99160.34;4983423;28;20046;-71
2023/07/22 05:44:19;;;;;;;0.20;0.20;;;;;;;17.64;55.70;99150.16;4985361;28;20105;-71
2023/07/22 05:46:46;;;;;;;0.20;0.20;;;;;;;17.77;55.78;99166.78;4983052;28;20049;-71
2023/07/22 05:49:12;;;;;;;0.30;0.30;;;;;;;17.75;55.68;99164.38;4982467;28;20109;-70
2023/07/22 05:51:38;;;;;;;0.30;0.30;;;;;;;17.79;55.89;99168.09;4982889;28;20072;-71
2023/07/22 05:54:05;;;;;;;0.30;0.30;;;;;;;17.91;56.41;99158.22;4984113;28;20050;-71
2023/07/22 05:56:31;;;;;;;0.20;0.20;;;;;;;18.06;55.82;99151.25;4983726;28;20047;-71
2023/07/22 05:58:59;;;;;;;0.20;0.20;;;;;;;18.09;54.96;99156.94;4986508;28;20050;-72
2023/07/22 06:01:25;;;;;;;0.20;0.20;;;;;;;18.08;54.52;99160.03;4989580;28;20050;-70
2023/07/22 06:03:52;;;;;;;0.30;0.30;;;;;;;18.04;54.01;99151.63;4986415;28;20450;-72
2023/07/22 06:06:19;;;;;;;0.20;0.20;;;;;;;18.07;54.07;99150.13;4968011;28;20072;-71
2023/07/22 06:08:45;;;;;;;0.30;0.30;;;;;;;18.12;54.20;99141.63;5001970;28;20050;-71
2023/07/22 06:11:11;;;;;;;0.20;0.20;;;;;;;18.19;53.62;99150.16;4988226;28;20054;-71
2023/07/22 06:13:38;;;;;;;0.30;0.30;;;;;;;18.29;54.43;99146.13;4970887;28;20177;-71
2023/07/22 06:16:05;;;;;;;0.30;0.30;;;;;;;18.36;53.72;99154.69;4988233;28;20618;-72
2023/07/22 06:18:32;;;;;;;0.30;0.30;;;;;;;18.43;54.24;99143.06;4986818;28;20046;-71
2023/07/22 06:20:58;;;;;;;0.30;0.30;;;;;;;18.60;54.05;99155.88;4983281;28;20043;-71
2023/07/22 06:23:24;;;;;;;0.20;0.20;;;;;;;18.71;53.32;99157.03;4982324;28;20046;-71
2023/07/22 06:25:52;;;;;;;0.30;0.30;;;;;;;18.82;52.81;99156.59;4984795;28;20491;-71
2023/07/22 06:28:20;;;;;;;0.30;0.30;;;;;;;19.04;52.33;99155.31;4984778;28;20145;-70
2023/07/22 06:30:47;;;;;;;0.30;0.30;;;;;;;19.25;51.91;99157.94;4984815;28;20101;-70
2023/07/22 06:33:16;;;;;;;0.20;0.20;;;;;;;19.38;50.80;99153.19;4983353;28;20047;-70
2023/07/22 06:35:42;;;;;;;0.22;0.22;;;;;;;19.39;51.36;99151.22;4956349;28;20470;-71
2023/07/22 06:38:08;;;;;;;0.30;0.30;;;;;;;19.45;50.87;99143.47;4986788;28;20096;-71
2023/07/22 06:40:37;;;;;;;0.30;0.30;;;;;;;19.64;51.11;99148.38;4986598;28;20054;-71
2023/07/22 06:43:03;;;;;;;0.30;0.30;;;;;;;19.75;50.83;99140.38;4966849;28;20137;-71
2023/07/22 06:45:31;;;;;;;0.30;0.30;;;;;;;19.79;50.32;99147.63;4986565;28;20057;-70
2023/07/22 06:47:57;;;;;;;0.30;0.30;;;;;;;19.79;50.40;99152.34;4987700;28;20418;-70
2023/07/22 06:50:25;;;;;;;0.30;0.30;;;;;;;19.86;50.26;99152.56;4983972;28;20114;-70
2023/07/22 06:52:52;;;;;;;0.40;0.40;;;;;;;19.66;50.90;99155.16;4986375;28;20132;-71
2023/07/22 06:55:18;;;;;;;0.30;0.30;;;;;;;19.89;49.96;99159.38;4972507;28;20047;-70
2023/07/22 06:57:45;;;;;;;0.30;0.30;;;;;;;19.70;49.87;99156.09;4965295;28;20046;-71
2023/07/22 07:00:12;;;;;;;0.20;0.20;;;;;;;19.59;50.12;99154.97;4958131;28;20425;-70
2023/07/22 07:02:38;;;;;;;0.25;0.25;;;;;;;19.49;50.55;99156.28;5002964;28;20430;-71
2023/07/22 07:05:05;;;;;;;0.30;0.30;;;;;;;19.69;50.52;99154.50;4985993;28;20406;-71
2023/07/22 07:07:34;;;;;;;0.30;0.30;;;;;;;19.81;49.80;99145.31;4983911;28;20042;-71
2023/07/22 07:10:00;;;;;;;0.30;0.30;;;;;;;19.94;48.98;99146.09;4985994;28;20050;-71
2023/07/22 07:12:27;;;;;;;0.30;0.30;;;;;;;20.06;48.43;99161.06;4985327;28;20072;-71
2023/07/22 07:14:53;;;;;;;0.40;0.40;;;;;;;20.09;48.25;99155.63;4985893;28;20097;-70
2023/07/22 07:17:19;;;;;;;0.40;0.40;;;;;;;20.27;48.18;99158.84;4985869;28;20045;-71
2023/07/22 07:19:46;;;;;;;0.30;0.30;;;;;;;20.51;48.06;99154.31;4970446;28;20544;-70
2023/07/22 07:22:12;;;;;;;0.30;0.30;;;;;;;20.90;47.37;99152.88;4970534;28;20672;-71
2023/07/22 07:24:40;;;;;;;0.30;0.30;;;;;;;20.86;46.85;99149.22;4971892;28;20049;-70
2023/07/22 07:27:06;;;;;;;0.30;0.30;;;;;;;20.69;47.24;99151.16;4970628;28;20050;-71
2023/07/22 07:29:33;;;;;;;0.30;0.30;;;;;;;20.52;46.95;99155.94;5003587;28;20555;-70
2023/07/22 07:32:00;;;;;;;0.40;0.40;;;;;;;20.44;47.08;99151.34;4967684;28;20533;-70
2023/07/22 07:34:26;;;;;;;0.40;0.40;;;;;;;20.62;46.17;99159.34;4988217;28;20120;-70
2023/07/22 07:36:52;;;;;;;0.45;0.45;;;;;;;20.88;45.70;99149.66;4988887;28;20506;-70
2023/07/22 07:39:19;;;;;;;0.63;0.40;;;;;;;21.24;44.16;99153.28;4971344;28;20053;-70
2023/07/22 07:41:46;;;;;;;0.30;0.30;;;;;;;21.12;44.25;99156.97;5000250;28;20053;-71
2023/07/22 07:44:13;;;;;;;0.40;0.40;;;;;;;20.99;44.80;99147.13;4988004;28;20101;-71
2023/07/22 07:46:39;;;;;;;0.40;0.40;;;;;;;21.34;44.12;99158.25;4972764;28;20430;-73
2023/07/22 07:49:06;;;;;;;0.30;0.30;;;;;;;21.65;43.41;99155.75;5000443;28;20068;-73
2023/07/22 07:51:32;;;;;;;0.40;0.40;;;;;;;21.66;43.11;99154.59;4966158;28;20413;-72
2023/07/22 07:53:59;;;;;;;0.40;0.40;;;;;;;21.74;42.65;99149.97;4986606;28;20129;-72
2023/07/22 07:56:26;;;;;;;0.30;0.30;;;;;;;21.68;42.48;99138.34;4970495;28;20057;-72
2023/07/22 07:58:54;;;;;;;0.50;0.50;;;;;;;21.71;42.20;99153.50;4989395;28;20042;-73
2023/07/22 08:01:21;;;;;;;0.40;0.40;;;;;;;21.87;42.19;99151.44;4980184;28;20077;-73
2023/07/22 08:03:48;;;;;;;0.50;0.50;;;;;;;22.08;42.12;99145.47;4972549;28;20050;-72
2023/07/22 08:06:15;;;;;;;;;;;;;;;22.65;40.84;99155.25;4954798;28;20256;-72
2023/07/22 08:08:41;;;;;;;0.40;0.40;;;;;;;22.64;40.44;99148.84;4976164;28;20021;-72
2023/07/22 08:11:09;;;;;;;0.50;0.50;;;;;;;23.06;39.75;99141.53;4974286;28;20050;-72
2023/07/22 08:13:37;;;;;;;0.40;0.40;;;;;;;23.51;38.96;99141.81;4969323;28;20050;-72
2023/07/22 08:16:07;;;;;;;0.40;0.40;;;;;;;23.56;38.45;99149.00;4983703;28;20068;-73
2023/07/22 08:18:34;;;;;;;0.50;0.50;;;;;;;23.46;38.53;99147.69;4983378;28;20061;-72
2023/07/22 08:21:02;;;;;;;0.40;0.40;;;;;;;23.50;39.66;99151.34;4986480;28;20053;-72
2023/07/22 08:23:28;;;;;;;0.40;0.40;;;;;;;23.89;38.27;99150.22;4984821;28;20084;-72
2023/07/22 08:25:55;;;;;;;0.53;0.53;;;;;;;23.83;37.86;99148.94;4984097;28;20046;-72
2023/07/22 08:28:22;;;;;;;0.50;0.50;;;;;;;23.87;37.76;99144.19;4984228;28;20772;-72
2023/07/22 08:30:48;;;;;;;0.50;0.50;;;;;;;24.04;37.42;99148.41;4968023;28;20046;-70
2023/07/22 08:33:16;;;;;;;0.40;0.40;;;;;;;23.94;38.26;99154.63;4988087;28;20050;-72
2023/07/22 08:35:43;;;;;;;0.50;0.50;;;;;;;24.04;38.00;99145.63;5001664;28;20455;-72
2023/07/22 08:38:09;;;;;;;0.60;0.50;;;;;;;24.14;38.02;99157.28;4618535;28;10000283;-73
2023/07/22 08:40:36;;;;;;;0.50;0.50;;;;;;;24.38;36.75;99153.16;4978058;28;20100;-72
2023/07/22 08:43:04;;;;;;;0.50;0.50;;;;;;;24.65;36.32;99158.53;4983812;28;20089;-71
2023/07/22 08:45:34;;;;;;;0.30;0.30;;;;;;;24.85;36.00;99156.34;4992330;28;20034;-70
2023/07/22 08:48:04;;;;;;;0.30;0.30;;;;;;;23.94;37.40;99155.44;4980152;28;20281;-70
2023/07/22 08:50:36;;;;;;;0.30;0.30;;;;;;;23.43;38.63;99159.59;4985392;28;20062;-70
2023/07/22 08:53:05;;;;;;;0.45;0.45;;;;;;;23.84;38.49;99153.34;4984900;28;20058;-70
2023/07/22 08:55:31;;;;;;;0.50;0.50;;;;;;;24.21;36.78;99160.16;4983944;28;20050;-70
2023/07/22 08:57:58;;;;;;;0.30;0.30;;;;;;;24.02;37.27;99161.09;4980424;28;20042;-70
2023/07/22 09:00:25;;;;;;;0.30;0.30;;;;;;;23.21;37.87;99153.72;4955106;28;20061;-73
2023/07/22 09:02:53;;;;;;;0.50;0.50;;;;;;;23.19;38.24;99144.94;4982413;28;20066;-71
2023/07/22 09:05:18;;;;;;;;;;;;;;;23.65;36.75;99157.91;4966555;28;20439;-72
2023/07/22 09:07:48;;;;;;;0.50;0.50;;;;;;;23.84;36.66;99158.13;4979855;28;19933;-71
2023/07/22 09:10:16;;;;;;;0.45;0.45;;;;;;;24.26;36.07;99161.78;4975490;28;20445;-71
2023/07/22 09:12:42;;;;;;;0.50;0.50;;;;;;;24.87;35.19;99165.16;4982981;28;20521;-73
2023/07/22 09:15:11;;;;;;;0.35;0.35;;;;;;;25.01;34.87;99164.47;4984430;28;20120;-72
2023/07/22 09:17:38;;;;;;;0.50;0.50;;;;;;;24.25;35.97;99149.03;4985252;28;20030;-71
2023/07/22 09:20:07;;;;;;;0.30;0.30;;;;;;;23.64;36.31;99150.72;4951362;28;20042;-71
2023/07/22 09:22:34;;;;;;;0.50;0.50;;;;;;;23.48;36.90;99161.28;4982687;28;20108;-72
2023/07/22 09:25:21;;;;;;;0.60;0.60;;;;;;;23.62;37.16;99155.06;4984840;28;20142;-70
2023/07/22 09:27:48;;;;;;;0.50;0.50;;;;;;;23.76;36.79;99146.88;4985561;28;20101;-71
2023/07/22 09:30:21;;;;;;;;;;;;;;;23.56;37.19;99143.44;4969024;28;20486;-71
2023/07/22 09:32:48;;;;;;;0.30;0.30;;;;;;;23.85;37.12;99156.94;4982995;28;20386;-70
2023/07/22 09:35:15;;;;;;;0.30;0.30;;;;;;;23.51;37.55;99150.16;4984346;28;20141;-71
2023/07/22 09:37:41;;;;;;;0.60;0.60;;;;;;;23.85;37.64;99152.16;5001398;28;20105;-72
2023/07/22 09:40:19;;;;;;;0.60;0.60;;;;;;;24.67;36.81;99155.38;4987314;28;20601;-71
2023/07/22 09:42:49;;;;;;;0.30;0.30;;;;;;;25.10;35.29;99160.50;4985706;28;20047;-71
2023/07/22 09:45:16;;;;;;;0.30;0.30;;;;;;;24.35;35.70;99148.31;4986047;28;20051;-71
2023/07/22 09:47:43;;;;;;;0.30;0.30;;;;;;;23.82;36.87;99155.72;4986326;28;20058;-71
2023/07/22 09:50:14;;;;;;;;;;;;;;;23.31;38.46;99159.84;4987127;28;20157;-71
2023/07/22 09:52:47;;;;;;;0.60;0.60;;;;;;;23.78;36.53;99161.25;4985417;28;20312;-71
2023/07/22 09:55:15;;;;;;;0.30;0.30;;;;;;;24.44;35.42;99161.97;4987283;28;20761;-70
2023/07/22 09:57:45;;;;;;;0.30;0.30;;;;;;;24.94;34.82;99161.59;4988714;28;20042;-70
2023/07/22 10:00:14;;;;;;;0.60;0.60;;;;;;;25.08;34.89;99160.91;4983057;28;20054;-70
2023/07/22 10:02:44;;;;;;;0.60;0.60;;;;;;;25.69;33.56;99159.66;4985604;28;20568;-70
2023/07/22 10:05:16;;;;;;;0.60;0.60;;;;;;;26.24;32.22;99167.06;4983948;28;20085;-71
2023/07/22 10:07:45;;;;;;;0.50;0.50;;;;;;;26.68;31.41;99159.47;5001169;28;20077;-71
2023/07/22 10:10:13;;;;;;;0.55;0.55;;;;;;;26.56;31.41;99166.28;4986541;28;20140;-71
2023/07/22 10:12:41;;;;;;;0.60;0.60;;;;;;;26.57;31.14;99178.31;4985998;28;20066;-71
2023/07/22 10:15:08;;;;;;;0.40;0.40;;;;;;;25.79;32.13;99175.69;4987190;28;20141;-70
2023/07/22 10:17:36;;;;;;;0.40;0.40;;;;;;;24.74;33.20;99173.00;4999673;28;20050;-70
2023/07/22 10:20:07;;;;;;;0.40;0.40;;;;;;;24.84;33.69;99176.31;4982534;28;20505;-70
2023/07/22 10:22:35;;;;;;;0.30;0.30;;;;;;;24.60;35.05;99158.91;4987344;28;20081;-70
2023/07/22 10:25:05;;;;;;;0.30;0.30;;;;;;;24.34;35.28;99169.03;4967256;28;20047;-70
2023/07/22 10:27:32;;;;;;;0.30;0.30;;;;;;;23.92;36.34;99169.00;4984370;28;20133;-70
2023/07/22 10:30:00;;;;;;;0.38;0.38;;;;;;;23.69;36.77;99163.53;4984362;28;20053;-70
2023/07/22 10:32:32;;;;;;;0.40;0.40;;;;;;;24.09;35.75;99169.59;4980500;28;20145;-70
2023/07/22 10:35:00;;;;;;;0.40;0.40;;;;;;;24.34;35.07;99175.44;4986107;28;20128;-70
2023/07/22 10:37:32;;;;;;;0.30;0.30;;;;;;;24.16;32.86;99191.22;5000726;28;20046;-70
2023/07/22 10:40:20;;;;;;;0.30;0.30;;;;;;;23.61;34.84;99175.78;4984422;28;20050;-70
2023/07/22 10:42:54;;;;;;;0.80;0.80;;;;;;;23.83;35.48;99176.06;4985226;28;20153;-70
2023/07/22 10:45:24;;;;;;;0.80;0.80;;;;;;;25.58;33.24;99179.19;4989251;28;20422;-69
2023/07/22 10:48:01;;;;;;;0.40;0.40;;;;;;;26.85;30.09;99179.50;4990882;28;20066;-70
2023/07/22 10:50:40;;;;;;;0.30;0.30;;;;;;;26.04;31.28;99169.38;4987911;28;20766;-70
2023/07/22 10:53:09;;;;;;;0.90;0.90;;;;;;;25.29;32.07;99174.22;4988819;28;20061;-70
2023/07/22 10:56:03;;;;;;;1.00;1.00;;;;;;;26.93;30.99;99169.91;4988532;28;20054;-70
2023/07/22 10:58:30;;;;;;;0.40;0.40;;;;;;;26.97;30.56;99175.53;4970761;28;20069;-71
2023/07/22 11:00:56;;;;;;;0.50;0.50;;;;;;;26.11;31.90;99172.19;4946960;28;20065;-70
2023/07/22 11:03:22;;;;;;;0.50;0.50;;;;;;;25.81;31.63;99167.72;4987009;28;20486;-70
2023/07/22 11:05:55;;;;;;;0.70;0.70;;;;;;;25.98;31.81;99176.56;4984324;28;20518;-70
2023/07/22 11:08:39;;;;;;;1.10;1.10;;;;;;;26.45;30.97;99163.47;4967257;28;20051;-69
2023/07/22 11:11:05;;;;;;;1.10;1.10;;;;;;;26.45;31.13;99159.88;4982106;28;20525;-69
2023/07/22 11:13:37;;;;;;;1.10;1.10;;;;;;;27.70;29.79;99171.34;4632189;28;10000448;-70
2023/07/22 11:16:04;;;;;;;1.15;1.10;;;;;;;29.30;27.47;99156.19;4983557;28;20569;-70
2023/07/22 11:18:37;;;;;;;0.40;0.40;;;;;;;28.48;28.29;99175.38;4966642;28;20073;-70
2023/07/22 11:21:10;;;;;;;0.60;0.60;;;;;;;26.54;31.16;99177.09;4984255;28;20104;-69
2023/07/22 11:23:36;;;;;;;1.20;1.10;;;;;;;25.85;31.42;99170.53;4964551;28;20470;-70
2023/07/22 11:26:03;;;;;;;0.80;0.80;;;;;;;26.96;29.73;99183.13;4995404;28;20073;-70
2023/07/22 11:28:30;;;;;;;;;;;;;;;27.10;29.11;99187.13;4972238;28;20055;-70
2023/07/22 11:30:56;;;;;;;0.30;0.30;;;;;;;25.57;30.63;99200.00;5002376;28;20889;-69
2023/07/22 11:33:22;;;;;;;0.30;0.30;;;;;;;24.47;33.15;99194.72;4969455;28;20057;-70
2023/07/22 11:35:49;;;;;;;0.30;0.30;;;;;;;23.90;34.91;99201.25;4986664;28;20442;-70